Time;durP1;ratioP1;P1;durP2;ratioP2;P2;SDS_P1;SDS_P2;PMS_P1;PMS_P2;Temp;Humidity;BMP_temperature;BMP_pressure;BME280_temperature;BME280_humidity;BME280_pressure;Samples;Min_cycle;Max_cycle;Signal;HPM_P1;HPM_P2
2023/03/04 00:02:11;;;;;;;10.63;3.50;;;;;0.30;96431.00;;;;5015982;28;20189;-58
2023/03/04 00:04:39;;;;;;;4.17;3.93;;;;;0.30;96427.00;;;;5015689;28;20192;-59
2023/03/04 00:07:06;;;;;;;6.20;5.57;;;;;0.30;96430.00;;;;5015843;28;20222;-60
2023/03/04 00:09:34;;;;;;;14.53;13.07;;;;;0.20;96427.00;;;;5015623;28;20598;-58
2023/03/04 00:12:01;;;;;;;9.67;8.63;;;;;0.30;96426.00;;;;5015536;28;20207;-58
2023/03/04 00:14:30;;;;;;;5.00;4.50;;;;;0.40;96418.00;;;;5015757;28;20602;-60
2023/03/04 00:16:57;;;;;;;5.50;5.00;;;;;0.30;96429.00;;;;5015463;28;20193;-59
2023/03/04 00:19:25;;;;;;;4.43;4.03;;;;;0.30;96435.00;;;;5013013;28;20200;-60
2023/03/04 00:21:52;;;;;;;8.10;5.17;;;;;0.30;96416.00;;;;5015405;28;20196;-59
2023/03/04 00:24:20;;;;;;;8.80;3.23;;;;;0.30;96420.00;;;;5015486;28;20203;-59
2023/03/04 00:26:47;;;;;;;6.13;5.50;;;;;0.10;96413.00;;;;5015396;28;20342;-59
2023/03/04 00:29:14;;;;;;;4.10;3.80;;;;;0.10;96421.00;;;;5015377;28;20656;-59
2023/03/04 00:31:43;;;;;;;8.10;3.53;;;;;0.20;96421.00;;;;5015221;28;20219;-59
2023/03/04 00:34:11;;;;;;;6.53;4.30;;;;;0.00;96423.00;;;;5015230;28;20206;-59
2023/03/04 00:36:38;;;;;;;3.80;3.43;;;;;0.10;96418.00;;;;5015763;28;20196;-59
2023/03/04 00:39:06;;;;;;;3.47;3.17;;;;;0.10;96427.00;;;;5015340;28;20197;-59
2023/03/04 00:41:33;;;;;;;4.47;4.17;;;;;0.10;96422.00;;;;5014933;28;20216;-58
2023/03/04 00:44:00;;;;;;;5.63;3.53;;;;;0.20;96414.00;;;;5014890;28;20694;-58
2023/03/04 00:46:28;;;;;;;2.57;2.47;;;;;0.10;96416.00;;;;5015058;28;20227;-57
2023/03/04 00:48:57;;;;;;;4.27;3.97;;;;;-0.20;96420.00;;;;5015001;28;20195;-58
2023/03/04 00:51:24;;;;;;;4.07;3.80;;;;;-0.20;96427.00;;;;5015022;28;20711;-58
2023/03/04 00:53:51;;;;;;;7.50;4.73;;;;;-0.20;96415.00;;;;5014744;28;20200;-58
2023/03/04 00:56:19;;;;;;;4.67;3.90;;;;;-0.20;96410.00;;;;5014701;28;20219;-57
2023/03/04 00:58:46;;;;;;;5.10;4.60;;;;;-0.20;96416.00;;;;5014705;28;20194;-58
2023/03/04 01:01:14;;;;;;;5.87;4.40;;;;;-0.30;96414.00;;;;5014574;28;20215;-60
2023/03/04 01:03:41;;;;;;;4.07;3.73;;;;;-0.30;96416.00;;;;5014836;28;20199;-59
2023/03/04 01:06:11;;;;;;;4.33;4.00;;;;;-0.30;96404.00;;;;5014791;28;20201;-58
2023/03/04 01:08:39;;;;;;;3.63;3.33;;;;;-0.30;96406.00;;;;5014681;28;20248;-58
2023/03/04 01:11:07;;;;;;;7.47;5.47;;;;;-0.40;96409.00;;;;5014343;28;20217;-58
2023/03/04 01:13:35;;;;;;;3.43;3.17;;;;;-0.40;96418.00;;;;5014590;28;20189;-58
2023/03/04 01:16:03;;;;;;;9.07;5.33;;;;;-0.40;96405.00;;;;5014579;28;20225;-59
2023/03/04 01:18:31;;;;;;;5.83;4.67;;;;;-0.40;96415.00;;;;5014613;28;20196;-59
2023/03/04 01:20:58;;;;;;;6.03;3.53;;;;;-0.40;96402.00;;;;5014412;28;20219;-59
2023/03/04 01:23:27;;;;;;;15.00;3.83;;;;;-0.40;96404.00;;;;5013935;28;20214;-59
2023/03/04 01:25:55;;;;;;;7.83;4.00;;;;;-0.40;96400.00;;;;5014428;28;20200;-59
2023/03/04 01:28:23;;;;;;;2.23;2.13;;;;;-0.40;96406.00;;;;5014487;28;20198;-59
2023/03/04 01:30:50;;;;;;;5.13;4.67;;;;;-0.40;96396.00;;;;5013856;28;20223;-57
2023/03/04 01:33:17;;;;;;;6.40;4.93;;;;;-0.30;96404.00;;;;5014314;28;20193;-57
2023/03/04 01:35:45;;;;;;;7.50;5.23;;;;;-0.30;96402.00;;;;5014283;28;20589;-57
2023/03/04 01:38:13;;;;;;;4.63;4.20;;;;;-0.30;96395.00;;;;5014328;28;20198;-57
2023/03/04 01:40:41;;;;;;;4.73;3.53;;;;;-0.30;96390.00;;;;5013967;28;20247;-57
2023/03/04 01:43:15;;;;;;;5.17;3.00;;;;;-0.50;96396.00;;;;5013815;28;20218;-59
2023/03/04 01:45:43;;;;;;;8.07;5.03;;;;;-0.40;96390.00;;;;5014129;28;20572;-59
2023/03/04 01:48:13;;;;;;;6.00;5.50;;;;;-0.40;96392.00;;;;5014013;28;20562;-57
2023/03/04 01:50:41;;;;;;;3.77;3.53;;;;;-0.50;96391.00;;;;5013751;28;20222;-57
2023/03/04 01:53:19;;;;;;;6.77;3.77;;;;;-0.60;96392.00;;;;5012348;28;20211;-57
2023/03/04 01:55:49;;;;;;;4.40;4.00;;;;;-0.60;96394.00;;;;5014112;28;20184;-58
2023/03/04 01:58:16;;;;;;;4.37;3.97;;;;;-0.50;96394.00;;;;5013497;28;20219;-58
2023/03/04 02:00:44;;;;;;;5.37;4.23;;;;;-0.60;96389.00;;;;5013478;28;20697;-57
2023/03/04 02:03:15;;;;;;;3.57;2.70;;;;;-0.60;96395.00;;;;5013764;28;20550;-57
2023/03/04 02:05:45;;;;;;;5.23;3.57;;;;;-0.60;96384.00;;;;5014009;28;20184;-57
2023/03/04 02:08:14;;;;;;;3.23;2.97;;;;;-0.70;96387.00;;;;5013915;28;20194;-57
2023/03/04 02:10:43;;;;;;;9.70;4.37;;;;;-0.80;96386.00;;;;5013478;28;20223;-57
2023/03/04 02:13:13;;;;;;;6.93;5.07;;;;;-0.70;96378.00;;;;5013332;28;20247;-57
2023/03/04 02:15:41;;;;;;;3.20;3.00;;;;;-0.80;96382.00;;;;5013447;28;20197;-57
2023/03/04 02:18:15;;;;;;;5.00;3.30;;;;;-0.90;96382.00;;;;5013716;28;20665;-58
2023/03/04 02:20:52;;;;;;;2.73;2.63;;;;;-0.80;96381.00;;;;5013537;28;20217;-58
2023/03/04 02:23:25;;;;;;;4.87;4.17;;;;;-1.10;96375.00;;;;5013354;28;20597;-58
2023/03/04 02:26:12;;;;;;;4.03;3.70;;;;;-1.10;96374.00;;;;5013256;28;20186;-58
2023/03/04 02:28:39;;;;;;;12.30;4.13;;;;;-1.10;96376.00;;;;5013720;28;20251;-59
2023/03/04 02:31:07;;;;;;;6.30;4.07;;;;;-1.20;96374.00;;;;5013359;28;20232;-58
2023/03/04 02:33:34;;;;;;;7.00;4.30;;;;;-1.10;96369.00;;;;5012129;28;20669;-58
2023/03/04 02:36:02;;;;;;;4.83;4.10;;;;;-1.00;96370.00;;;;5013214;28;20195;-58
2023/03/04 02:38:29;;;;;;;6.00;5.40;;;;;-0.90;96372.00;;;;5012964;28;20217;-59
2023/03/04 02:40:57;;;;;;;3.00;2.80;;;;;-1.00;96360.00;;;;5011792;28;20307;-58
2023/03/04 02:43:27;;;;;;;8.57;4.07;;;;;-1.00;96363.00;;;;5015782;28;20609;-59
2023/03/04 02:45:55;;;;;;;4.57;4.27;;;;;-1.10;96364.00;;;;5017286;28;20301;-59
2023/03/04 02:48:23;;;;;;;4.73;4.33;;;;;-1.10;96359.00;;;;5017034;28;20200;-59
2023/03/04 02:50:53;;;;;;;3.60;3.40;;;;;-1.10;96356.00;;;;5015556;28;20236;-59
2023/03/04 02:53:21;;;;;;;6.67;4.73;;;;;-1.00;96370.00;;;;5017215;28;20193;-58
2023/03/04 02:55:49;;;;;;;6.40;4.13;;;;;-1.10;96358.00;;;;5017078;28;20549;-59
2023/03/04 02:58:16;;;;;;;7.60;3.67;;;;;-1.00;96369.00;;;;5015434;28;20584;-59
2023/03/04 03:00:45;;;;;;;3.10;2.90;;;;;-1.00;96366.00;;;;5016762;28;20218;-59
2023/03/04 03:03:13;;;;;;;3.37;3.10;;;;;-1.10;96370.00;;;;5016743;28;20205;-58
2023/03/04 03:05:40;;;;;;;4.87;3.67;;;;;-1.20;96366.00;;;;5016846;28;20202;-59
2023/03/04 03:08:08;;;;;;;5.07;4.57;;;;;-1.20;96374.00;;;;5016978;28;20201;-58
2023/03/04 03:10:35;;;;;;;3.53;3.13;;;;;-1.40;96372.00;;;;5016772;28;20221;-58
2023/03/04 03:13:03;;;;;;;3.63;3.33;;;;;-1.40;96371.00;;;;5016572;28;20249;-58
2023/03/04 03:15:31;;;;;;;4.13;2.43;;;;;-1.40;96364.00;;;;5017053;28;20198;-58
2023/03/04 03:17:59;;;;;;;3.43;3.23;;;;;-1.30;96367.00;;;;5017411;28;20547;-58
2023/03/04 03:20:27;;;;;;;4.97;4.47;;;;;-1.30;96367.00;;;;5016341;28;20219;-58
2023/03/04 03:22:54;;;;;;;6.30;3.33;;;;;-1.40;96379.00;;;;5016719;28;20194;-58
2023/03/04 03:25:22;;;;;;;5.47;4.90;;;;;-1.50;96368.00;;;;5017186;28;20212;-59
2023/03/04 03:27:49;;;;;;;6.13;4.53;;;;;-1.40;96377.00;;;;5016990;28;20199;-59
2023/03/04 03:30:17;;;;;;;4.07;3.77;;;;;-1.30;96374.00;;;;5016196;28;20215;-59
2023/03/04 03:32:44;;;;;;;5.50;3.80;;;;;-1.20;96372.00;;;;5017235;28;20202;-59
2023/03/04 03:35:13;;;;;;;4.93;4.30;;;;;-1.30;96370.00;;;;5016451;28;20662;-59
2023/03/04 03:37:40;;;;;;;7.53;2.80;;;;;-1.20;96368.00;;;;5016186;28;20215;-58
2023/03/04 03:40:09;;;;;;;5.60;5.20;;;;;-1.30;96362.00;;;;5016517;28;20217;-59
2023/03/04 03:42:36;;;;;;;3.30;3.00;;;;;-1.30;96367.00;;;;5016191;28;20193;-59
2023/03/04 03:45:04;;;;;;;6.33;3.53;;;;;-1.20;96367.00;;;;5016252;28;20299;-58
2023/03/04 03:47:32;;;;;;;5.93;4.77;;;;;-1.30;96375.00;;;;5015901;28;20190;-62
2023/03/04 03:49:59;;;;;;;7.53;3.87;;;;;-1.30;96373.00;;;;5033021;22;20229;-63
2023/03/04 03:52:28;;;;;;;2.60;2.50;;;;;-1.30;96367.00;;;;5038316;28;20649;-61
2023/03/04 03:54:56;;;;;;;3.17;2.97;;;;;-1.30;96369.00;;;;5056099;28;20594;-61
2023/03/04 03:57:23;;;;;;;4.30;3.87;;;;;-1.30;96365.00;;;;5055890;28;20216;-60
2023/03/04 03:59:50;;;;;;;4.93;3.67;;;;;-1.40;96359.00;;;;5055884;28;20217;-62
2023/03/04 04:02:18;;;;;;;5.10;3.63;;;;;-1.50;96364.00;;;;5056465;28;20193;-61
2023/03/04 04:04:45;;;;;;;2.87;2.67;;;;;-1.50;96365.00;;;;5056326;28;20197;-62
2023/03/04 04:07:13;;;;;;;4.53;4.13;;;;;-1.40;96365.00;;;;5056154;28;20218;-62
2023/03/04 04:09:42;;;;;;;12.27;5.07;;;;;-1.50;96370.00;;;;5056228;28;20193;-62
2023/03/04 04:12:09;;;;;;;6.50;5.27;;;;;-1.50;96358.00;;;;5056338;28;20219;-62
2023/03/04 04:14:37;;;;;;;4.03;3.50;;;;;-1.60;96355.00;;;;5055430;28;20203;-62
2023/03/04 04:17:04;;;;;;;6.30;4.40;;;;;-1.50;96365.00;;;;5037502;28;20302;-61
2023/03/04 04:19:32;;;;;;;4.80;3.53;;;;;-1.60;96364.00;;;;5055319;28;20202;-62
2023/03/04 04:21:59;;;;;;;3.33;3.17;;;;;-1.60;96369.00;;;;5055194;28;20212;-62
2023/03/04 04:24:27;;;;;;;7.43;5.20;;;;;-1.60;96362.00;;;;5055372;28;20197;-62
2023/03/04 04:26:56;;;;;;;3.57;3.37;;;;;-1.60;96367.00;;;;5055620;28;20215;-62
2023/03/04 04:29:23;;;;;;;6.70;3.57;;;;;-1.60;96364.00;;;;5055395;28;20200;-62
2023/03/04 04:31:51;;;;;;;6.30;5.70;;;;;-1.70;96367.00;;;;5054965;28;20212;-61
2023/03/04 04:34:18;;;;;;;4.13;3.77;;;;;-1.70;96363.00;;;;5054957;28;20199;-61
2023/03/04 04:36:46;;;;;;;7.13;6.17;;;;;-1.80;96358.00;;;;5054917;28;20216;-62
2023/03/04 04:39:13;;;;;;;4.07;3.67;;;;;-1.70;96360.00;;;;5055008;28;20194;-61
2023/03/04 04:41:43;;;;;;;5.73;5.13;;;;;-1.70;96362.00;;;;5054828;28;20208;-61
2023/03/04 04:44:13;;;;;;;7.63;5.40;;;;;-1.80;96361.00;;;;5055162;28;20559;-62
2023/03/04 04:46:41;;;;;;;4.90;4.47;;;;;-1.80;96359.00;;;;5054711;28;20219;-61
2023/03/04 04:49:08;;;;;;;5.80;5.20;;;;;-1.90;96362.00;;;;5054676;28;20678;-61
2023/03/04 04:51:37;;;;;;;4.93;4.53;;;;;-1.80;96357.00;;;;5054462;28;20227;-61
2023/03/04 04:54:05;;;;;;;3.57;3.37;;;;;-1.80;96365.00;;;;5054664;28;20196;-62
2023/03/04 04:56:33;;;;;;;3.60;3.33;;;;;-1.90;96364.00;;;;5054648;28;20257;-61
2023/03/04 04:59:04;;;;;;;5.33;4.77;;;;;-1.90;96360.00;;;;5054454;28;20205;-61
2023/03/04 05:01:33;;;;;;;7.20;5.03;;;;;-1.80;96378.00;;;;5055093;28;20235;-61
2023/03/04 05:04:00;;;;;;;10.17;4.50;;;;;-1.90;96378.00;;;;5054383;28;20188;-61
2023/03/04 05:06:28;;;;;;;8.77;3.57;;;;;-2.00;96367.00;;;;5053803;28;20254;-61
2023/03/04 05:08:56;;;;;;;4.50;3.67;;;;;-2.10;96368.00;;;;5054304;28;20684;-62
2023/03/04 05:11:23;;;;;;;9.07;5.33;;;;;-2.20;96368.00;;;;5054109;28;20223;-61
2023/03/04 05:13:51;;;;;;;3.43;3.07;;;;;-2.30;96366.00;;;;5036399;28;20660;-61
2023/03/04 05:16:18;;;;;;;2.17;2.07;;;;;-2.30;96363.00;;;;5054466;28;20535;-64
2023/03/04 05:18:47;;;;;;;4.50;3.67;;;;;-2.20;96368.00;;;;5054209;28;20215;-62
2023/03/04 05:21:15;;;;;;;7.13;4.17;;;;;-2.20;96361.00;;;;5053933;28;20294;-62
2023/03/04 05:23:44;;;;;;;3.50;3.00;;;;;-2.00;96367.00;;;;5054007;28;20241;-63
2023/03/04 05:26:14;;;;;;;3.87;3.53;;;;;-2.00;96358.00;;;;5054271;28;20199;-63
2023/03/04 05:28:41;;;;;;;4.83;4.37;;;;;-2.00;96372.00;;;;5054806;28;20172;-62
2023/03/04 05:31:09;;;;;;;6.53;4.80;;;;;-2.00;96364.00;;;;5053810;28;20216;-63
2023/03/04 05:33:37;;;;;;;5.13;3.50;;;;;-2.00;96353.00;;;;5053773;28;20683;-62
2023/03/04 05:36:07;;;;;;;6.07;4.00;;;;;-2.00;96368.00;;;;5035813;28;20655;-62
2023/03/04 05:38:35;;;;;;;4.47;3.97;;;;;-2.00;96364.00;;;;5053749;28;20572;-62
2023/03/04 05:41:05;;;;;;;5.57;5.07;;;;;-2.00;96369.00;;;;5053616;28;20216;-62
2023/03/04 05:43:34;;;;;;;5.83;5.23;;;;;-2.10;96364.00;;;;5053667;28;20221;-62
2023/03/04 05:46:02;;;;;;;3.83;3.57;;;;;-2.20;96368.00;;;;5053885;28;20767;-62
2023/03/04 05:48:29;;;;;;;6.90;4.87;;;;;-2.60;96372.00;;;;5035603;28;20192;-62
2023/03/04 05:50:58;;;;;;;9.53;3.70;;;;;-2.60;96368.00;;;;5053526;28;20698;-63
2023/03/04 05:53:27;;;;;;;3.97;3.67;;;;;-2.60;96368.00;;;;5053777;28;20195;-62
2023/03/04 05:55:55;;;;;;;4.13;3.73;;;;;-2.50;96384.00;;;;5053444;28;20207;-63
2023/03/04 05:58:22;;;;;;;3.47;3.17;;;;;-2.40;96366.00;;;;5035785;28;20220;-62
2023/03/04 06:00:50;;;;;;;5.40;4.60;;;;;-2.40;96377.00;;;;5053528;28;20220;-62
2023/03/04 06:03:18;;;;;;;5.87;5.13;;;;;-2.40;96385.00;;;;5053986;28;20215;-62
2023/03/04 06:05:46;;;;;;;4.13;3.73;;;;;-2.30;96386.00;;;;5053717;28;20195;-62
2023/03/04 06:08:14;;;;;;;4.10;3.60;;;;;-2.30;96392.00;;;;5053311;28;20187;-62
2023/03/04 06:10:42;;;;;;;7.40;5.20;;;;;-2.30;96383.00;;;;5053199;28;20219;-62
2023/03/04 06:13:10;;;;;;;10.57;6.27;;;;;-2.40;96379.00;;;;5035355;28;20660;-63
2023/03/04 06:15:38;;;;;;;15.30;10.50;;;;;-2.40;96389.00;;;;5053229;28;20218;-62
2023/03/04 06:18:06;;;;;;;13.70;9.10;;;;;-2.30;96377.00;;;;5052506;28;20679;-62
2023/03/04 06:20:33;;;;;;;8.73;6.60;;;;;-2.30;96389.00;;;;5053395;28;20706;-62
2023/03/04 06:23:01;;;;;;;5.67;5.23;;;;;-2.20;96389.00;;;;5035231;28;20204;-63
2023/03/04 06:25:28;;;;;;;7.03;6.33;;;;;-2.10;96397.00;;;;5053379;28;20639;-62
2023/03/04 06:27:57;;;;;;;7.17;4.73;;;;;-2.20;96399.00;;;;5053017;28;20188;-63
2023/03/04 06:30:25;;;;;;;6.07;4.70;;;;;-2.20;96402.00;;;;5052952;28;20239;-66
2023/03/04 06:32:52;;;;;;;9.80;5.93;;;;;-2.10;96413.00;;;;5053307;28;20196;-62
2023/03/04 06:35:20;;;;;;;5.70;4.43;;;;;-2.00;96403.00;;;;5035189;28;20189;-62
2023/03/04 06:37:51;;;;;;;9.40;6.23;;;;;-2.00;96408.00;;;;5052808;28;20683;-62
2023/03/04 06:40:19;;;;;;;13.60;7.03;;;;;-2.00;96413.00;;;;5035194;28;20777;-62
2023/03/04 06:42:46;;;;;;;6.57;6.07;;;;;-1.90;96406.00;;;;5035005;28;20200;-62
2023/03/04 06:45:15;;;;;;;18.93;5.93;;;;;-2.00;96411.00;;;;5052902;28;20200;-62
2023/03/04 06:47:43;;;;;;;9.43;5.93;;;;;-2.00;96420.00;;;;5053119;28;20552;-62
2023/03/04 06:50:12;;;;;;;8.43;4.60;;;;;-1.90;96411.00;;;;5052706;28;20224;-63
2023/03/04 06:52:40;;;;;;;3.83;3.53;;;;;-1.80;96410.00;;;;5053136;28;20199;-62
2023/03/04 06:55:08;;;;;;;4.33;3.90;;;;;-1.70;96419.00;;;;5052997;28;20678;-62
2023/03/04 06:57:36;;;;;;;6.13;5.57;;;;;-1.70;96420.00;;;;5053193;28;20196;-62
2023/03/04 07:00:05;;;;;;;9.40;4.90;;;;;-1.60;96425.00;;;;5052644;28;20212;-63
2023/03/04 07:02:34;;;;;;;5.30;4.90;;;;;-1.60;96419.00;;;;5052606;28;20196;-62
2023/03/04 07:05:02;;;;;;;9.07;7.07;;;;;-1.50;96415.00;;;;5052583;28;20229;-62
2023/03/04 07:07:29;;;;;;;6.63;4.77;;;;;-1.50;96417.00;;;;5053265;28;20200;-62
2023/03/04 07:09:56;;;;;;;5.67;5.03;;;;;-1.40;96416.00;;;;5052591;28;20195;-62
2023/03/04 07:12:24;;;;;;;6.50;4.03;;;;;-1.30;96426.00;;;;5052574;28;20206;-62
2023/03/04 07:14:51;;;;;;;8.57;4.70;;;;;-1.30;96432.00;;;;5053005;28;20202;-62
2023/03/04 07:17:19;;;;;;;5.23;4.73;;;;;-1.10;96420.00;;;;5052494;28;20659;-63
2023/03/04 07:19:48;;;;;;;4.90;4.50;;;;;-1.10;96421.00;;;;5052310;28;20717;-62
2023/03/04 07:22:15;;;;;;;3.57;3.27;;;;;-1.00;96431.00;;;;5052537;28;20200;-62
2023/03/04 07:24:42;;;;;;;2.17;2.07;;;;;-1.00;96432.00;;;;5052772;28;20285;-62
2023/03/04 07:27:10;;;;;;;7.37;6.03;;;;;-0.90;96438.00;;;;5034968;28;20201;-62
2023/03/04 07:29:37;;;;;;;7.00;6.33;;;;;-1.00;96438.00;;;;5055215;28;20187;-62
2023/03/04 07:32:08;;;;;;;4.93;3.93;;;;;-1.10;96438.00;;;;5056154;28;20217;-62
2023/03/04 07:34:36;;;;;;;3.93;3.67;;;;;-0.90;96450.00;;;;5056630;28;20180;-62
2023/03/04 07:37:04;;;;;;;4.63;4.23;;;;;-0.90;96449.00;;;;5056290;28;20190;-62
2023/03/04 07:39:32;;;;;;;4.07;3.53;;;;;-0.80;96446.00;;;;5055944;28;20223;-62
2023/03/04 07:41:59;;;;;;;3.50;3.20;;;;;-0.70;96446.00;;;;5056163;28;20238;-62
2023/03/04 07:44:27;;;;;;;3.83;3.53;;;;;-0.50;96444.00;;;;5055972;28;20197;-62
2023/03/04 07:46:54;;;;;;;4.13;3.83;;;;;-0.30;96446.00;;;;5056004;28;20191;-62
2023/03/04 07:49:22;;;;;;;2.50;2.30;;;;;-0.10;96450.00;;;;5055917;28;20181;-63
2023/03/04 07:51:49;;;;;;;4.30;2.70;;;;;0.00;96457.00;;;;5055766;28;20232;-63
2023/03/04 07:54:19;;;;;;;3.70;3.27;;;;;0.20;96460.00;;;;5055807;28;20194;-62
2023/03/04 07:56:46;;;;;;;3.30;2.63;;;;;0.30;96464.00;;;;5055727;28;20555;-62
2023/03/04 07:59:14;;;;;;;4.40;4.00;;;;;0.00;96460.00;;;;5056140;28;20225;-62
2023/03/04 08:01:41;;;;;;;4.27;3.93;;;;;-0.10;96463.00;;;;5054232;28;20715;-62
2023/03/04 08:04:09;;;;;;;3.43;3.23;;;;;0.20;96458.00;;;;5055556;28;20190;-62
2023/03/04 08:06:36;;;;;;;2.93;2.37;;;;;0.20;96467.00;;;;5055763;28;20197;-62
2023/03/04 08:09:06;;;;;;;3.03;2.77;;;;;0.30;96460.00;;;;5055461;28;20201;-62
2023/03/04 08:11:36;;;;;;;2.43;2.33;;;;;0.40;96470.00;;;;5055326;28;20235;-62
2023/03/04 08:14:04;;;;;;;3.20;2.73;;;;;0.50;96461.00;;;;5055620;28;20177;-62
2023/03/04 08:16:32;;;;;;;4.07;3.50;;;;;0.80;96470.00;;;;5055324;28;20194;-63
2023/03/04 08:19:02;;;;;;;6.97;3.83;;;;;0.80;96467.00;;;;5055191;28;20217;-62
2023/03/04 08:21:30;;;;;;;4.10;3.77;;;;;0.80;96472.00;;;;5055581;28;20217;-62
2023/03/04 08:24:00;;;;;;;2.53;2.40;;;;;0.80;96472.00;;;;5055464;28;20191;-62
2023/03/04 08:26:32;;;;;;;3.60;3.30;;;;;0.80;96476.00;;;;5055511;28;20183;-62
2023/03/04 08:29:03;;;;;;;3.03;2.77;;;;;0.80;96478.00;;;;5055584;28;20255;-62
2023/03/04 08:31:31;;;;;;;2.77;2.67;;;;;0.80;96492.00;;;;5055005;28;20222;-62
2023/03/04 08:33:59;;;;;;;2.97;2.67;;;;;0.80;96488.00;;;;5055538;28;20190;-62
2023/03/04 08:36:26;;;;;;;3.00;2.80;;;;;0.70;96474.00;;;;5055053;28;20205;-63
2023/03/04 08:38:54;;;;;;;3.70;3.37;;;;;0.90;96484.00;;;;5055161;28;20241;-63
2023/03/04 08:41:21;;;;;;;3.87;2.80;;;;;0.90;96485.00;;;;5053846;28;20701;-63
2023/03/04 08:43:49;;;;;;;2.73;2.53;;;;;0.90;96488.00;;;;5054790;28;20223;-63
2023/03/04 08:46:17;;;;;;;2.60;2.40;;;;;1.10;96497.00;;;;5054799;28;20693;-63
2023/03/04 08:48:45;;;;;;;4.80;3.60;;;;;1.00;96486.00;;;;5054933;28;20252;-64
2023/03/04 08:51:15;;;;;;;6.10;3.40;;;;;1.00;96500.00;;;;5054765;28;20289;-64
2023/03/04 08:53:44;;;;;;;3.80;3.43;;;;;1.00;96492.00;;;;5054662;28;20187;-61
2023/03/04 08:56:12;;;;;;;8.23;3.73;;;;;1.00;96504.00;;;;5054843;28;20542;-63
2023/03/04 08:58:40;;;;;;;2.23;2.13;;;;;1.00;96497.00;;;;5054470;28;20223;-63
2023/03/04 09:01:09;;;;;;;2.30;2.13;;;;;1.00;96500.00;;;;5054318;28;20215;-61
2023/03/04 09:03:38;;;;;;;3.20;2.93;;;;;1.10;96497.00;;;;5054452;28;20202;-62
2023/03/04 09:06:07;;;;;;;3.10;2.80;;;;;1.10;96500.00;;;;5054529;28;20217;-62
2023/03/04 09:08:34;;;;;;;3.03;2.83;;;;;1.10;96501.00;;;;5054315;28;20190;-63
2023/03/04 09:11:02;;;;;;;3.40;3.10;;;;;1.20;96502.00;;;;5054639;28;20218;-62
2023/03/04 09:13:31;;;;;;;2.60;2.20;;;;;1.20;96500.00;;;;5054205;28;20198;-62
2023/03/04 09:15:59;;;;;;;3.63;3.43;;;;;1.20;96496.00;;;;5036257;28;20280;-63
2023/03/04 09:18:27;;;;;;;5.37;3.67;;;;;1.40;96495.00;;;;5054708;28;20536;-63
2023/03/04 09:20:56;;;;;;;3.43;3.20;;;;;1.30;96502.00;;;;5054044;28;20217;-63
2023/03/04 09:23:24;;;;;;;6.00;4.27;;;;;1.50;96509.00;;;;5054860;28;20210;-63
2023/03/04 09:25:51;;;;;;;3.73;3.43;;;;;1.60;96508.00;;;;5054077;28;20282;-64
2023/03/04 09:28:19;;;;;;;3.23;2.87;;;;;1.70;96504.00;;;;5053989;28;20199;-61
2023/03/04 09:30:47;;;;;;;12.33;2.97;;;;;1.70;96504.00;;;;5054068;28;20653;-63
2023/03/04 09:33:15;;;;;;;2.67;2.47;;;;;1.80;96507.00;;;;5036042;28;20555;-63
2023/03/04 09:35:43;;;;;;;3.23;2.97;;;;;1.80;96502.00;;;;5054462;28;20610;-63
2023/03/04 09:38:12;;;;;;;2.83;2.53;;;;;1.90;96495.00;;;;5053821;28;20195;-63
2023/03/04 09:40:42;;;;;;;2.63;2.17;;;;;2.40;96501.00;;;;5035776;28;20226;-63
2023/03/04 09:43:19;;;;;;;1.53;1.50;;;;;2.70;96498.00;;;;5054307;28;20202;-63
2023/03/04 09:45:50;;;;;;;7.37;3.67;;;;;2.90;96501.00;;;;5053788;28;20196;-63
2023/03/04 09:48:21;;;;;;;3.57;3.37;;;;;2.90;96502.00;;;;5053795;28;20179;-63
2023/03/04 09:53:23;;;;;;;5.50;4.90;;;;;2.90;96499.00;;;;5052308;28;20230;-67
2023/03/04 09:55:52;;;;;;;3.47;3.27;;;;;3.00;96486.00;;;;5054014;28;20177;-67
2023/03/04 09:58:35;;;;;;;3.20;2.77;;;;;3.00;96486.00;;;;5053634;28;20218;-67
2023/03/04 10:01:10;;;;;;;4.83;4.43;;;;;3.20;96491.00;;;;5053329;28;20211;-67
2023/03/04 10:03:43;;;;;;;6.90;5.17;;;;;3.20;96490.00;;;;5053376;28;20175;-67
2023/03/04 10:06:15;;;;;;;3.90;3.70;;;;;3.10;96486.00;;;;5053303;28;20245;-68
2023/03/04 10:08:50;;;;;;;3.57;2.93;;;;;3.20;96489.00;;;;5035356;28;20198;-68
2023/03/04 10:11:23;;;;;;;3.87;3.37;;;;;3.30;96493.00;;;;5053286;28;20214;-69
2023/03/04 10:14:20;;;;;;;3.43;3.23;;;;;3.30;96487.00;;;;5053532;28;20544;-68
2023/03/04 10:16:52;;;;;;;2.83;2.67;;;;;3.40;96478.00;;;;5053447;28;20180;-68
2023/03/04 10:19:30;;;;;;;5.07;3.00;;;;;3.50;96489.00;;;;5053189;28;20196;-68
2023/03/04 10:21:57;;;;;;;4.83;3.50;;;;;3.50;96486.00;;;;5053036;28;20226;-68
2023/03/04 10:24:29;;;;;;;6.50;3.63;;;;;3.60;96487.00;;;;5053167;28;20196;-68
2023/03/04 10:27:02;;;;;;;7.43;4.10;;;;;3.60;96478.00;;;;5053568;28;20192;-68
2023/03/04 10:29:32;;;;;;;4.60;4.13;;;;;3.60;96485.00;;;;5053352;28;20180;-68
2023/03/04 10:31:59;;;;;;;2.93;2.73;;;;;3.50;96472.00;;;;5052887;28;20234;-68
2023/03/04 10:34:27;;;;;;;5.73;3.37;;;;;3.50;96473.00;;;;5052848;28;20192;-68
2023/03/04 10:36:58;;;;;;;2.47;2.17;;;;;3.40;96475.00;;;;5034970;28;20198;-68
2023/03/04 10:39:29;;;;;;;1.80;1.70;;;;;3.70;96485.00;;;;5034896;28;20218;-68
2023/03/04 10:42:00;;;;;;;5.73;3.50;;;;;3.50;96479.00;;;;5034978;28;20305;-67
2023/03/04 10:44:29;;;;;;;4.70;4.03;;;;;3.50;96470.00;;;;5035241;28;20211;-68
2023/03/04 10:46:57;;;;;;;5.27;4.77;;;;;3.80;96472.00;;;;5052849;28;20188;-68
2023/03/04 10:49:27;;;;;;;4.67;3.37;;;;;3.70;96470.00;;;;5052792;28;20208;-68
2023/03/04 10:52:02;;;;;;;4.10;3.77;;;;;3.90;96460.00;;;;5052726;28;20224;-67
2023/03/04 10:54:36;;;;;;;3.27;3.03;;;;;4.10;96456.00;;;;5053171;28;20187;-68
2023/03/04 10:57:05;;;;;;;5.93;4.73;;;;;4.20;96461.00;;;;5053359;28;20572;-67
2023/03/04 10:59:39;;;;;;;3.33;3.13;;;;;4.40;96465.00;;;;5052880;28;20235;-68
2023/03/04 11:02:23;;;;;;;4.50;3.60;;;;;4.50;96451.00;;;;5052828;28;20215;-68
2023/03/04 11:04:53;;;;;;;7.23;5.00;;;;;4.80;96446.00;;;;5056080;28;20195;-68
2023/03/04 11:07:21;;;;;;;3.70;3.40;;;;;5.00;96447.00;;;;5056508;28;20188;-68
2023/03/04 11:09:50;;;;;;;6.60;3.87;;;;;5.20;96452.00;;;;5057261;28;20192;-68
2023/03/04 11:12:20;;;;;;;5.30;3.47;;;;;5.10;96445.00;;;;5056394;28;20207;-68
2023/03/04 11:14:50;;;;;;;3.80;3.50;;;;;5.00;96445.00;;;;5057309;28;20198;-68
2023/03/04 11:17:21;;;;;;;3.13;2.70;;;;;5.20;96435.00;;;;5056910;28;20188;-68
2023/03/04 11:19:52;;;;;;;6.20;3.10;;;;;5.40;96426.00;;;;5056292;28;20205;-68
2023/03/04 11:22:23;;;;;;;5.80;3.83;;;;;6.10;96446.00;;;;5056184;28;20220;-68
2023/03/04 11:24:58;;;;;;;3.97;3.67;;;;;6.00;96433.00;;;;5056621;28;20180;-67
2023/03/04 11:27:39;;;;;;;4.20;3.87;;;;;5.90;96435.00;;;;5056454;28;20204;-68
2023/03/04 11:30:27;;;;;;;5.40;4.00;;;;;6.10;96433.00;;;;5038731;28;20192;-68
2023/03/04 11:32:59;;;;;;;5.07;4.57;;;;;5.40;96407.00;;;;5056160;28;20223;-68
2023/03/04 11:35:32;;;;;;;5.13;4.37;;;;;6.30;96411.00;;;;5056082;28;20181;-67
2023/03/04 11:38:05;;;;;;;7.13;4.27;;;;;6.40;96400.00;;;;5056198;28;20178;-67
2023/03/04 11:40:40;;;;;;;5.23;4.83;;;;;6.90;96399.00;;;;5056184;28;20678;-68
2023/03/04 11:43:14;;;;;;;3.40;3.20;;;;;7.50;96406.00;;;;5055954;28;20179;-68
2023/03/04 11:46:10;;;;;;;4.63;4.23;;;;;7.60;96405.00;;;;5055911;28;20181;-68
2023/03/04 11:48:53;;;;;;;4.23;3.83;;;;;8.10;96408.00;;;;5056343;28;20180;-67
2023/03/04 11:51:27;;;;;;;3.20;2.60;;;;;8.20;96397.00;;;;5055795;28;20214;-67
2023/03/04 11:54:13;;;;;;;5.00;4.57;;;;;8.10;96418.00;;;;5055980;28;20189;-67
2023/03/04 11:56:45;;;;;;;2.80;2.53;;;;;7.60;96394.00;;;;5055731;28;20286;-67
2023/03/04 11:59:48;;;;;;;3.13;2.93;;;;;7.90;96399.00;;;;5055904;28;20181;-68
2023/03/04 12:02:18;;;;;;;6.90;4.73;;;;;8.40;96389.00;;;;5036674;28;20227;-67
2023/03/04 12:05:19;;;;;;;4.73;3.37;;;;;8.70;96379.00;;;;5037620;28;20207;-67
2023/03/04 12:08:21;;;;;;;8.57;4.20;;;;;8.80;96383.00;;;;5055957;28;20191;-68
2023/03/04 12:10:56;;;;;;;7.07;4.27;;;;;9.40;96372.00;;;;5055588;28;20529;-68
2023/03/04 12:13:58;;;;;;;5.60;3.60;;;;;9.50;96374.00;;;;5037384;28;20198;-68
2023/03/04 12:16:40;;;;;;;5.23;4.73;;;;;10.00;96360.00;;;;5018357;28;20598;-67
2023/03/04 12:19:24;;;;;;;7.33;5.07;;;;;10.30;96369.00;;;;5055566;28;20570;-67
2023/03/04 12:22:14;;;;;;;7.00;4.87;;;;;8.10;96361.00;;;;5055166;28;20204;-67
2023/03/04 12:25:13;;;;;;;3.97;3.17;;;;;8.10;96368.00;;;;5052800;28;20215;-67
2023/03/04 12:27:47;;;;;;;3.47;3.17;;;;;6.50;96353.00;;;;5055213;28;20613;-67
2023/03/04 12:30:31;;;;;;;3.67;3.23;;;;;6.70;96363.00;;;;5055971;28;20180;-67
2023/03/04 12:33:08;;;;;;;3.37;3.07;;;;;7.50;96366.00;;;;5055158;28;20207;-67
2023/03/04 12:35:42;;;;;;;4.23;2.87;;;;;7.10;96340.00;;;;5055642;28;20180;-67
2023/03/04 12:38:30;;;;;;;3.13;2.83;;;;;8.50;96324.00;;;;5055063;28;20180;-67